sensor_id;sensor_type;location;lat;lon;timestamp;pressure;altitude;pressure_sealevel;temperature;humidity
23223;BME280;11780;13.904;100.620;2023-02-26T00:01:14;101929.59;;;28.33;47.28
23223;BME280;11780;13.904;100.620;2023-02-26T00:03:48;101936.19;;;28.32;47.51
23223;BME280;11780;13.904;100.620;2023-02-26T00:06:19;101940.06;;;28.15;47.58
23223;BME280;11780;13.904;100.620;2023-02-26T00:08:50;101946.38;;;28.21;47.83
23223;BME280;11780;13.904;100.620;2023-02-26T00:11:22;101948.28;;;27.94;47.89
23223;BME280;11780;13.904;100.620;2023-02-26T00:13:53;101959.28;;;28.00;48.07
23223;BME280;11780;13.904;100.620;2023-02-26T00:16:29;101957.31;;;27.74;48.42
23223;BME280;11780;13.904;100.620;2023-02-26T00:19:06;101964.63;;;27.32;48.59
23223;BME280;11780;13.904;100.620;2023-02-26T00:21:36;101979.59;;;27.62;48.71
23223;BME280;11780;13.904;100.620;2023-02-26T00:24:06;101977.94;;;27.66;48.59
23223;BME280;11780;13.904;100.620;2023-02-26T00:26:36;101980.94;;;27.55;48.95
23223;BME280;11780;13.904;100.620;2023-02-26T00:29:06;101986.63;;;27.38;49.31
23223;BME280;11780;13.904;100.620;2023-02-26T00:31:37;101983.06;;;27.42;49.26
23223;BME280;11780;13.904;100.620;2023-02-26T00:34:11;101979.78;;;27.40;49.26
23223;BME280;11780;13.904;100.620;2023-02-26T00:37:06;101989.16;;;27.49;49.35
23223;BME280;11780;13.904;100.620;2023-02-26T00:42:25;101985.03;;;27.47;49.61
23223;BME280;11780;13.904;100.620;2023-02-26T00:44:55;101992.75;;;27.55;49.22
23223;BME280;11780;13.904;100.620;2023-02-26T00:47:50;101997.75;;;27.63;48.97
23223;BME280;11780;13.904;100.620;2023-02-26T00:50:23;102003.22;;;27.63;49.02
23223;BME280;11780;13.904;100.620;2023-02-26T00:55:42;102013.38;;;27.58;48.92
23223;BME280;11780;13.904;100.620;2023-02-26T00:58:12;102019.13;;;27.51;49.34
23223;BME280;11780;13.904;100.620;2023-02-26T01:00:43;102027.84;;;27.38;49.21
23223;BME280;11780;13.904;100.620;2023-02-26T01:03:13;102031.06;;;27.24;48.94
23223;BME280;11780;13.904;100.620;2023-02-26T01:05:44;102030.34;;;27.44;48.96
23223;BME280;11780;13.904;100.620;2023-02-26T01:08:33;102037.66;;;27.23;49.33
23223;BME280;11780;13.904;100.620;2023-02-26T01:11:06;102047.19;;;27.10;49.49
23223;BME280;11780;13.904;100.620;2023-02-26T01:13:36;102035.44;;;27.20;49.32
23223;BME280;11780;13.904;100.620;2023-02-26T01:16:09;102045.13;;;27.33;49.02
23223;BME280;11780;13.904;100.620;2023-02-26T01:18:45;102054.66;;;27.15;49.15
23223;BME280;11780;13.904;100.620;2023-02-26T01:21:25;102051.34;;;27.13;49.44
23223;BME280;11780;13.904;100.620;2023-02-26T01:24:00;102048.16;;;27.31;49.20
23223;BME280;11780;13.904;100.620;2023-02-26T01:26:34;102051.94;;;27.20;48.85
23223;BME280;11780;13.904;100.620;2023-02-26T01:29:05;102052.81;;;27.31;49.02
23223;BME280;11780;13.904;100.620;2023-02-26T01:34:20;102052.09;;;27.46;48.77
23223;BME280;11780;13.904;100.620;2023-02-26T01:36:57;102066.66;;;27.46;48.75
23223;BME280;11780;13.904;100.620;2023-02-26T01:39:39;102066.88;;;27.40;48.99
23223;BME280;11780;13.904;100.620;2023-02-26T01:42:20;102065.25;;;27.44;48.78
23223;BME280;11780;13.904;100.620;2023-02-26T01:45:03;102070.66;;;27.28;49.00
23223;BME280;11780;13.904;100.620;2023-02-26T01:47:50;102071.19;;;27.25;49.38
23223;BME280;11780;13.904;100.620;2023-02-26T01:50:23;102067.31;;;27.16;49.30
23223;BME280;11780;13.904;100.620;2023-02-26T01:53:20;102060.72;;;27.17;49.69
23223;BME280;11780;13.904;100.620;2023-02-26T01:56:00;102070.75;;;27.44;49.28
23223;BME280;11780;13.904;100.620;2023-02-26T01:58:33;102061.38;;;27.40;49.22
23223;BME280;11780;13.904;100.620;2023-02-26T02:01:05;102073.75;;;27.42;49.23
23223;BME280;11780;13.904;100.620;2023-02-26T02:03:38;102072.75;;;27.54;48.99
23223;BME280;11780;13.904;100.620;2023-02-26T02:06:17;102074.47;;;27.17;49.04
23223;BME280;11780;13.904;100.620;2023-02-26T02:08:48;102080.41;;;27.46;49.25
23223;BME280;11780;13.904;100.620;2023-02-26T02:11:19;102081.84;;;27.64;49.03
23223;BME280;11780;13.904;100.620;2023-02-26T02:16:54;102073.03;;;27.57;48.85
23223;BME280;11780;13.904;100.620;2023-02-26T02:28:34;102093.81;;;27.43;48.96
23223;BME280;11780;13.904;100.620;2023-02-26T02:31:34;102095.47;;;27.44;49.09
23223;BME280;11780;13.904;100.620;2023-02-26T02:34:16;102105.28;;;27.83;49.15
23223;BME280;11780;13.904;100.620;2023-02-26T02:37:26;102095.97;;;27.94;48.38
23223;BME280;11780;13.904;100.620;2023-02-26T02:40:08;102109.66;;;27.78;47.78
23223;BME280;11780;13.904;100.620;2023-02-26T02:45:49;102097.31;;;27.86;47.77
23223;BME280;11780;13.904;100.620;2023-02-26T02:48:33;102091.84;;;27.96;47.64
23223;BME280;11780;13.904;100.620;2023-02-26T02:51:11;102091.84;;;27.91;47.79
23223;BME280;11780;13.904;100.620;2023-02-26T02:54:00;102092.03;;;27.74;47.83
23223;BME280;11780;13.904;100.620;2023-02-26T02:56:40;102089.63;;;27.88;47.81
23223;BME280;11780;13.904;100.620;2023-02-26T02:59:27;102090.22;;;28.06;47.65
23223;BME280;11780;13.904;100.620;2023-02-26T03:04:46;102086.34;;;28.02;47.20
23223;BME280;11780;13.904;100.620;2023-02-26T03:07:17;102088.84;;;28.08;47.28
23223;BME280;11780;13.904;100.620;2023-02-26T03:09:50;102088.63;;;28.20;47.36
23223;BME280;11780;13.904;100.620;2023-02-26T03:12:21;102079.75;;;28.03;47.21
23223;BME280;11780;13.904;100.620;2023-02-26T03:14:51;102077.53;;;28.00;47.07
23223;BME280;11780;13.904;100.620;2023-02-26T03:17:56;102082.31;;;28.30;48.11
23223;BME280;11780;13.904;100.620;2023-02-26T03:24:00;102068.00;;;28.23;46.77
23223;BME280;11780;13.904;100.620;2023-02-26T03:26:52;102069.13;;;28.32;47.12
23223;BME280;11780;13.904;100.620;2023-02-26T03:29:32;102061.41;;;28.45;47.07
23223;BME280;11780;13.904;100.620;2023-02-26T03:32:08;102062.78;;;28.68;47.34
23223;BME280;11780;13.904;100.620;2023-02-26T03:34:46;102064.44;;;28.38;46.69
23223;BME280;11780;13.904;100.620;2023-02-26T03:37:51;102058.66;;;28.45;46.79
23223;BME280;11780;13.904;100.620;2023-02-26T03:40:30;102060.00;;;28.57;46.65
23223;BME280;11780;13.904;100.620;2023-02-26T03:43:22;102043.22;;;28.59;46.49
23223;BME280;11780;13.904;100.620;2023-02-26T03:45:59;102040.19;;;28.71;46.83
23223;BME280;11780;13.904;100.620;2023-02-26T03:48:32;102040.22;;;28.81;46.48
23223;BME280;11780;13.904;100.620;2023-02-26T03:51:09;102035.81;;;28.80;46.57
23223;BME280;11780;13.904;100.620;2023-02-26T03:54:40;102030.00;;;28.66;46.13
23223;BME280;11780;13.904;100.620;2023-02-26T03:57:32;102019.84;;;28.51;45.22
23223;BME280;11780;13.904;100.620;2023-02-26T04:00:21;102010.47;;;28.63;45.83
23223;BME280;11780;13.904;100.620;2023-02-26T04:06:05;102010.47;;;28.73;46.07
23223;BME280;11780;13.904;100.620;2023-02-26T04:08:37;102005.81;;;28.74;45.54
23223;BME280;11780;13.904;100.620;2023-02-26T04:11:11;102000.56;;;28.72;45.33
23223;BME280;11780;13.904;100.620;2023-02-26T04:13:44;101978.53;;;28.77;45.60
23223;BME280;11780;13.904;100.620;2023-02-26T04:16:15;101985.66;;;28.89;46.08
23223;BME280;11780;13.904;100.620;2023-02-26T04:18:45;101973.25;;;28.86;45.17
23223;BME280;11780;13.904;100.620;2023-02-26T04:21:20;101967.47;;;28.93;45.12
23223;BME280;11780;13.904;100.620;2023-02-26T04:23:51;101964.16;;;28.96;45.29
23223;BME280;11780;13.904;100.620;2023-02-26T04:26:21;101960.28;;;28.97;44.47
23223;BME280;11780;13.904;100.620;2023-02-26T04:28:52;101957.53;;;28.97;44.83
23223;BME280;11780;13.904;100.620;2023-02-26T04:31:23;101951.47;;;28.95;44.34
23223;BME280;11780;13.904;100.620;2023-02-26T04:33:54;101950.38;;;28.96;44.31
23223;BME280;11780;13.904;100.620;2023-02-26T04:36:24;101941.31;;;28.85;44.43
23223;BME280;11780;13.904;100.620;2023-02-26T04:38:57;101940.47;;;28.90;44.11
23223;BME280;11780;13.904;100.620;2023-02-26T04:41:29;101927.25;;;28.97;44.21
23223;BME280;11780;13.904;100.620;2023-02-26T04:43:59;101928.34;;;28.91;44.06
23223;BME280;11780;13.904;100.620;2023-02-26T04:46:31;101911.25;;;28.94;43.92
23223;BME280;11780;13.904;100.620;2023-02-26T04:49:01;101910.72;;;28.97;44.14
23223;BME280;11780;13.904;100.620;2023-02-26T04:51:32;101910.97;;;29.00;44.31
23223;BME280;11780;13.904;100.620;2023-02-26T04:54:03;101905.97;;;29.08;44.46
23223;BME280;11780;13.904;100.620;2023-02-26T04:56:34;101896.28;;;29.15;44.75
23223;BME280;11780;13.904;100.620;2023-02-26T04:59:04;101904.50;;;29.26;44.88
23223;BME280;11780;13.904;100.620;2023-02-26T05:01:34;101892.94;;;29.24;43.91
23223;BME280;11780;13.904;100.620;2023-02-26T05:04:07;101882.69;;;29.29;44.06
23223;BME280;11780;13.904;100.620;2023-02-26T05:06:39;101883.00;;;29.28;43.95
23223;BME280;11780;13.904;100.620;2023-02-26T05:09:09;101873.63;;;29.29;43.99
23223;BME280;11780;13.904;100.620;2023-02-26T05:11:39;101868.34;;;29.32;44.19
23223;BME280;11780;13.904;100.620;2023-02-26T05:14:10;101857.66;;;29.26;44.16
23223;BME280;11780;13.904;100.620;2023-02-26T05:16:40;101858.72;;;29.30;44.29
23223;BME280;11780;13.904;100.620;2023-02-26T05:19:11;101868.63;;;29.36;44.47
23223;BME280;11780;13.904;100.620;2023-02-26T05:21:48;101857.03;;;29.39;44.38
23223;BME280;11780;13.904;100.620;2023-02-26T05:24:18;101848.19;;;29.42;44.46
23223;BME280;11780;13.904;100.620;2023-02-26T05:26:49;101845.41;;;29.47;44.41
23223;BME280;11780;13.904;100.620;2023-02-26T05:29:20;101834.63;;;29.51;43.66
23223;BME280;11780;13.904;100.620;2023-02-26T05:31:51;101824.94;;;29.54;43.99
23223;BME280;11780;13.904;100.620;2023-02-26T05:34:22;101827.91;;;29.62;44.18
23223;BME280;11780;13.904;100.620;2023-02-26T05:36:52;101816.25;;;29.71;44.31
23223;BME280;11780;13.904;100.620;2023-02-26T05:39:22;101818.75;;;29.67;44.17
23223;BME280;11780;13.904;100.620;2023-02-26T05:41:52;101814.25;;;29.82;44.95
23223;BME280;11780;13.904;100.620;2023-02-26T05:44:23;101811.47;;;29.82;44.29
23223;BME280;11780;13.904;100.620;2023-02-26T05:46:55;101786.94;;;29.80;44.05
23223;BME280;11780;13.904;100.620;2023-02-26T05:49:25;101794.66;;;29.78;43.92
23223;BME280;11780;13.904;100.620;2023-02-26T05:51:55;101779.22;;;29.77;44.11
23223;BME280;11780;13.904;100.620;2023-02-26T05:54:27;101770.69;;;29.78;44.13
23223;BME280;11780;13.904;100.620;2023-02-26T05:56:58;101770.91;;;29.82;44.01
23223;BME280;11780;13.904;100.620;2023-02-26T05:59:28;101766.81;;;29.80;44.07
23223;BME280;11780;13.904;100.620;2023-02-26T06:01:58;101758.25;;;29.81;44.24
23223;BME280;11780;13.904;100.620;2023-02-26T06:04:28;101754.13;;;29.78;44.02
23223;BME280;11780;13.904;100.620;2023-02-26T06:06:58;101736.75;;;29.78;43.75
23223;BME280;11780;13.904;100.620;2023-02-26T06:09:28;101731.78;;;29.80;43.51
23223;BME280;11780;13.904;100.620;2023-02-26T06:11:58;101727.09;;;29.81;43.82
23223;BME280;11780;13.904;100.620;2023-02-26T06:14:30;101732.59;;;29.81;44.22
23223;BME280;11780;13.904;100.620;2023-02-26T06:17:01;101711.88;;;29.83;43.86
23223;BME280;11780;13.904;100.620;2023-02-26T06:19:31;101706.06;;;29.85;43.62
23223;BME280;11780;13.904;100.620;2023-02-26T06:22:01;101705.22;;;29.89;44.36
23223;BME280;11780;13.904;100.620;2023-02-26T06:24:32;101702.66;;;29.93;44.09
23223;BME280;11780;13.904;100.620;2023-02-26T06:27:02;101700.41;;;30.00;44.30
23223;BME280;11780;13.904;100.620;2023-02-26T06:29:32;101690.41;;;30.04;43.64
23223;BME280;11780;13.904;100.620;2023-02-26T06:32:04;101687.34;;;30.06;43.90
23223;BME280;11780;13.904;100.620;2023-02-26T06:34:34;101676.94;;;30.03;43.44
23223;BME280;11780;13.904;100.620;2023-02-26T06:37:04;101677.97;;;30.07;43.56
23223;BME280;11780;13.904;100.620;2023-02-26T06:39:35;101666.81;;;30.17;44.32
23223;BME280;11780;13.904;100.620;2023-02-26T06:42:05;101666.13;;;30.06;43.16
23223;BME280;11780;13.904;100.620;2023-02-26T06:44:35;101661.81;;;30.19;43.76
23223;BME280;11780;13.904;100.620;2023-02-26T06:47:06;101655.69;;;30.22;44.12
23223;BME280;11780;13.904;100.620;2023-02-26T06:49:36;101650.84;;;30.14;42.84
23223;BME280;11780;13.904;100.620;2023-02-26T06:52:07;101641.50;;;30.29;44.12
23223;BME280;11780;13.904;100.620;2023-02-26T06:54:37;101636.44;;;30.36;44.32
23223;BME280;11780;13.904;100.620;2023-02-26T06:58:00;101626.22;;;30.37;44.01
23223;BME280;11780;13.904;100.620;2023-02-26T07:00:30;101627.72;;;30.29;44.12
23223;BME280;11780;13.904;100.620;2023-02-26T07:03:00;101621.06;;;30.30;43.83
23223;BME280;11780;13.904;100.620;2023-02-26T07:05:31;101622.13;;;30.34;44.09
23223;BME280;11780;13.904;100.620;2023-02-26T07:08:02;101620.94;;;30.41;44.38
23223;BME280;11780;13.904;100.620;2023-02-26T07:10:35;101610.19;;;30.39;44.20
23223;BME280;11780;13.904;100.620;2023-02-26T07:13:07;101611.00;;;30.40;43.99
23223;BME280;11780;13.904;100.620;2023-02-26T07:15:37;101604.06;;;30.42;43.77
23223;BME280;11780;13.904;100.620;2023-02-26T07:18:07;101598.94;;;30.55;44.56
23223;BME280;11780;13.904;100.620;2023-02-26T07:20:38;101594.34;;;30.45;43.78
23223;BME280;11780;13.904;100.620;2023-02-26T07:23:10;101585.19;;;30.49;44.20
23223;BME280;11780;13.904;100.620;2023-02-26T07:25:42;101580.13;;;30.37;42.99
23223;BME280;11780;13.904;100.620;2023-02-26T07:28:13;101579.22;;;30.42;43.24
23223;BME280;11780;13.904;100.620;2023-02-26T07:30:43;101582.81;;;30.43;43.49
23223;BME280;11780;13.904;100.620;2023-02-26T07:33:13;101579.44;;;30.46;43.34
23223;BME280;11780;13.904;100.620;2023-02-26T07:35:43;101562.88;;;30.46;43.85
23223;BME280;11780;13.904;100.620;2023-02-26T07:38:13;101569.50;;;30.45;43.01
23223;BME280;11780;13.904;100.620;2023-02-26T07:40:46;101554.69;;;30.41;43.20
23223;BME280;11780;13.904;100.620;2023-02-26T07:43:16;101557.97;;;30.43;43.31
23223;BME280;11780;13.904;100.620;2023-02-26T07:45:49;101553.91;;;30.54;43.79
23223;BME280;11780;13.904;100.620;2023-02-26T07:48:20;101552.34;;;30.48;43.68
23223;BME280;11780;13.904;100.620;2023-02-26T07:50:51;101547.56;;;30.53;44.20
23223;BME280;11780;13.904;100.620;2023-02-26T07:53:21;101545.72;;;30.49;43.78
23223;BME280;11780;13.904;100.620;2023-02-26T07:55:51;101539.75;;;30.61;43.66
23223;BME280;11780;13.904;100.620;2023-02-26T07:58:21;101533.91;;;30.62;43.88
23223;BME280;11780;13.904;100.620;2023-02-26T08:00:51;101534.03;;;30.57;43.69
23223;BME280;11780;13.904;100.620;2023-02-26T08:03:21;101525.22;;;30.55;43.24
23223;BME280;11780;13.904;100.620;2023-02-26T08:05:51;101521.63;;;30.55;42.91
23223;BME280;11780;13.904;100.620;2023-02-26T08:08:22;101525.94;;;30.61;43.57
23223;BME280;11780;13.904;100.620;2023-02-26T08:10:52;101525.09;;;30.60;43.75
23223;BME280;11780;13.904;100.620;2023-02-26T08:13:22;101522.97;;;30.57;43.18
23223;BME280;11780;13.904;100.620;2023-02-26T08:15:52;101512.56;;;30.49;43.48
23223;BME280;11780;13.904;100.620;2023-02-26T08:18:22;101510.22;;;30.42;43.29
23223;BME280;11780;13.904;100.620;2023-02-26T08:20:53;101505.53;;;30.43;43.85
23223;BME280;11780;13.904;100.620;2023-02-26T08:23:23;101509.16;;;30.38;43.85
23223;BME280;11780;13.904;100.620;2023-02-26T08:26:04;101510.59;;;30.35;44.12
23223;BME280;11780;13.904;100.620;2023-02-26T08:28:34;101515.19;;;30.26;43.67
23223;BME280;11780;13.904;100.620;2023-02-26T08:31:05;101508.81;;;30.26;43.47
23223;BME280;11780;13.904;100.620;2023-02-26T08:33:35;101503.44;;;30.34;44.29
23223;BME280;11780;13.904;100.620;2023-02-26T08:36:06;101502.91;;;30.32;43.68
23223;BME280;11780;13.904;100.620;2023-02-26T08:38:36;101502.88;;;30.18;43.70
23223;BME280;11780;13.904;100.620;2023-02-26T08:41:06;101508.69;;;30.17;43.46
23223;BME280;11780;13.904;100.620;2023-02-26T08:43:36;101502.06;;;30.18;44.04
23223;BME280;11780;13.904;100.620;2023-02-26T08:46:06;101503.09;;;30.22;44.23
23223;BME280;11780;13.904;100.620;2023-02-26T08:48:36;101496.47;;;30.23;45.01
23223;BME280;11780;13.904;100.620;2023-02-26T08:51:06;101508.00;;;30.25;44.14
23223;BME280;11780;13.904;100.620;2023-02-26T08:53:36;101509.66;;;30.26;44.68
23223;BME280;11780;13.904;100.620;2023-02-26T08:56:08;101512.63;;;30.30;44.70
23223;BME280;11780;13.904;100.620;2023-02-26T08:58:38;101517.19;;;30.20;43.77
23223;BME280;11780;13.904;100.620;2023-02-26T09:01:08;101515.25;;;30.21;43.66
23223;BME280;11780;13.904;100.620;2023-02-26T09:03:39;101510.31;;;30.18;43.46
23223;BME280;11780;13.904;100.620;2023-02-26T09:06:09;101526.34;;;30.16;43.61
23223;BME280;11780;13.904;100.620;2023-02-26T09:08:39;101515.84;;;30.18;43.74
23223;BME280;11780;13.904;100.620;2023-02-26T09:11:09;101513.91;;;30.18;43.52
23223;BME280;11780;13.904;100.620;2023-02-26T09:13:39;101523.06;;;30.14;42.70
23223;BME280;11780;13.904;100.620;2023-02-26T09:16:09;101524.84;;;30.23;43.24
23223;BME280;11780;13.904;100.620;2023-02-26T09:18:39;101516.56;;;30.23;43.42
23223;BME280;11780;13.904;100.620;2023-02-26T09:21:10;101515.19;;;30.26;43.48
23223;BME280;11780;13.904;100.620;2023-02-26T09:23:40;101510.38;;;30.32;44.19
23223;BME280;11780;13.904;100.620;2023-02-26T09:26:11;101525.59;;;30.29;43.07
23223;BME280;11780;13.904;100.620;2023-02-26T09:28:41;101519.56;;;30.27;43.17
23223;BME280;11780;13.904;100.620;2023-02-26T09:31:11;101528.06;;;30.31;43.04
23223;BME280;11780;13.904;100.620;2023-02-26T09:33:41;101529.50;;;30.28;42.24
23223;BME280;11780;13.904;100.620;2023-02-26T09:36:13;101521.44;;;30.32;42.32
23223;BME280;11780;13.904;100.620;2023-02-26T09:38:44;101518.94;;;30.30;42.28
23223;BME280;11780;13.904;100.620;2023-02-26T09:41:21;101528.97;;;30.26;42.05
23223;BME280;11780;13.904;100.620;2023-02-26T09:44:18;101524.56;;;30.25;42.36
23223;BME280;11780;13.904;100.620;2023-02-26T09:49:58;101531.34;;;30.33;43.43
23223;BME280;11780;13.904;100.620;2023-02-26T09:52:44;101528.28;;;30.34;43.98
23223;BME280;11780;13.904;100.620;2023-02-26T09:58:20;101528.81;;;30.36;44.10
23223;BME280;11780;13.904;100.620;2023-02-26T10:01:06;101538.50;;;30.34;44.47
23223;BME280;11780;13.904;100.620;2023-02-26T10:12:20;101540.44;;;30.33;43.50
23223;BME280;11780;13.904;100.620;2023-02-26T10:15:00;101544.56;;;30.36;43.30
23223;BME280;11780;13.904;100.620;2023-02-26T10:20:33;101540.16;;;30.35;43.24
23223;BME280;11780;13.904;100.620;2023-02-26T10:25:57;101541.28;;;30.34;43.31
23223;BME280;11780;13.904;100.620;2023-02-26T10:40:40;101547.38;;;30.31;43.03
23223;BME280;11780;13.904;100.620;2023-02-26T10:43:26;101547.38;;;30.31;43.16
23223;BME280;11780;13.904;100.620;2023-02-26T10:46:48;101544.84;;;30.34;42.86
23223;BME280;11780;13.904;100.620;2023-02-26T10:51:50;101548.78;;;30.47;43.30
23223;BME280;11780;13.904;100.620;2023-02-26T10:54:30;101551.63;;;30.42;43.58
23223;BME280;11780;13.904;100.620;2023-02-26T10:57:03;101555.88;;;30.34;42.72
23223;BME280;11780;13.904;100.620;2023-02-26T10:59:48;101558.56;;;30.40;43.29
23223;BME280;11780;13.904;100.620;2023-02-26T11:02:40;101555.59;;;30.36;42.65
23223;BME280;11780;13.904;100.620;2023-02-26T11:05:31;101564.38;;;30.38;42.80
23223;BME280;11780;13.904;100.620;2023-02-26T11:08:08;101564.16;;;30.34;43.18
23223;BME280;11780;13.904;100.620;2023-02-26T11:13:17;101567.50;;;30.31;43.10
23223;BME280;11780;13.904;100.620;2023-02-26T11:15:51;101570.59;;;30.30;42.98
23223;BME280;11780;13.904;100.620;2023-02-26T11:18:43;101580.19;;;30.32;43.22
23223;BME280;11780;13.904;100.620;2023-02-26T11:21:29;101582.22;;;30.27;43.29
23223;BME280;11780;13.904;100.620;2023-02-26T11:24:10;101579.66;;;30.30;43.65
23223;BME280;11780;13.904;100.620;2023-02-26T11:26:45;101585.13;;;30.35;43.70
23223;BME280;11780;13.904;100.620;2023-02-26T11:29:21;101588.41;;;30.37;43.24
23223;BME280;11780;13.904;100.620;2023-02-26T11:31:56;101596.63;;;30.43;43.28
23223;BME280;11780;13.904;100.620;2023-02-26T11:34:33;101595.56;;;30.38;43.28
23223;BME280;11780;13.904;100.620;2023-02-26T11:37:04;101600.50;;;30.42;43.45
23223;BME280;11780;13.904;100.620;2023-02-26T11:39:37;101601.09;;;30.38;43.63
23223;BME280;11780;13.904;100.620;2023-02-26T11:42:09;101599.38;;;30.43;43.46
23223;BME280;11780;13.904;100.620;2023-02-26T11:44:42;101605.41;;;30.45;43.67
23223;BME280;11780;13.904;100.620;2023-02-26T11:47:20;101611.16;;;30.48;43.57
23223;BME280;11780;13.904;100.620;2023-02-26T11:49:53;101617.81;;;30.47;43.42
23223;BME280;11780;13.904;100.620;2023-02-26T11:52:33;101617.28;;;30.45;43.39
23223;BME280;11780;13.904;100.620;2023-02-26T11:55:27;101628.53;;;30.49;43.53
23223;BME280;11780;13.904;100.620;2023-02-26T11:57:56;101629.97;;;30.46;43.77
23223;BME280;11780;13.904;100.620;2023-02-26T12:00:36;101631.88;;;30.46;43.57
23223;BME280;11780;13.904;100.620;2023-02-26T12:03:19;101636.06;;;30.43;43.57
23223;BME280;11780;13.904;100.620;2023-02-26T12:05:49;101641.66;;;30.38;43.58
23223;BME280;11780;13.904;100.620;2023-02-26T12:08:37;101643.63;;;30.37;43.65
23223;BME280;11780;13.904;100.620;2023-02-26T12:11:40;101654.06;;;30.41;43.65
23223;BME280;11780;13.904;100.620;2023-02-26T12:16:56;101659.13;;;30.33;43.85
23223;BME280;11780;13.904;100.620;2023-02-26T12:22:48;101662.41;;;30.35;43.86
23223;BME280;11780;13.904;100.620;2023-02-26T12:42:49;101699.34;;;30.20;44.43
23223;BME280;11780;13.904;100.620;2023-02-26T12:45:32;101706.19;;;30.23;44.40
23223;BME280;11780;13.904;100.620;2023-02-26T12:50:51;101708.38;;;30.26;44.45
23223;BME280;11780;13.904;100.620;2023-02-26T13:05:24;101723.38;;;30.15;44.76
23223;BME280;11780;13.904;100.620;2023-02-26T13:08:16;101733.84;;;30.18;44.88
23223;BME280;11780;13.904;100.620;2023-02-26T13:10:56;101731.16;;;30.13;44.82
23223;BME280;11780;13.904;100.620;2023-02-26T13:16:25;101744.00;;;29.98;45.60
23223;BME280;11780;13.904;100.620;2023-02-26T13:21:35;101752.28;;;29.98;45.72
23223;BME280;11780;13.904;100.620;2023-02-26T13:24:20;101756.44;;;29.96;45.73
23223;BME280;11780;13.904;100.620;2023-02-26T13:26:53;101752.28;;;29.98;45.71
23223;BME280;11780;13.904;100.620;2023-02-26T13:29:28;101766.56;;;30.05;45.84
23223;BME280;11780;13.904;100.620;2023-02-26T13:32:07;101760.47;;;30.08;46.07
23223;BME280;11780;13.904;100.620;2023-02-26T13:35:05;101761.03;;;30.05;46.04
23223;BME280;11780;13.904;100.620;2023-02-26T13:37:44;101769.09;;;30.02;46.17
23223;BME280;11780;13.904;100.620;2023-02-26T13:46:14;101770.78;;;29.98;46.77
23223;BME280;11780;13.904;100.620;2023-02-26T13:49:11;101780.69;;;29.99;46.62
23223;BME280;11780;13.904;100.620;2023-02-26T13:52:00;101778.75;;;29.99;46.63
23223;BME280;11780;13.904;100.620;2023-02-26T13:54:48;101784.56;;;29.98;46.86
23223;BME280;11780;13.904;100.620;2023-02-26T13:57:34;101789.78;;;29.99;47.24
23223;BME280;11780;13.904;100.620;2023-02-26T14:00:30;101788.69;;;30.00;47.32
23223;BME280;11780;13.904;100.620;2023-02-26T14:06:08;101786.22;;;29.99;47.39
23223;BME280;11780;13.904;100.620;2023-02-26T14:08:44;101786.81;;;29.96;47.21
23223;BME280;11780;13.904;100.620;2023-02-26T14:14:10;101804.19;;;29.96;47.26
23223;BME280;11780;13.904;100.620;2023-02-26T14:16:49;101807.19;;;29.95;47.35
23223;BME280;11780;13.904;100.620;2023-02-26T14:19:27;101815.22;;;29.96;47.29
23223;BME280;11780;13.904;100.620;2023-02-26T14:22:20;101814.94;;;29.92;47.03
23223;BME280;11780;13.904;100.620;2023-02-26T14:30:03;101818.56;;;29.88;47.63
23223;BME280;11780;13.904;100.620;2023-02-26T14:33:13;101818.22;;;29.95;47.64
23223;BME280;11780;13.904;100.620;2023-02-26T14:35:47;101816.56;;;29.93;48.11
23223;BME280;11780;13.904;100.620;2023-02-26T14:38:27;101821.28;;;29.93;48.14
23223;BME280;11780;13.904;100.620;2023-02-26T14:41:08;101822.09;;;29.93;48.32
23223;BME280;11780;13.904;100.620;2023-02-26T14:43:59;101826.81;;;29.93;48.27
23223;BME280;11780;13.904;100.620;2023-02-26T14:46:30;101832.09;;;29.89;48.78
23223;BME280;11780;13.904;100.620;2023-02-26T14:49:00;101833.72;;;29.90;48.96
23223;BME280;11780;13.904;100.620;2023-02-26T14:51:51;101833.72;;;29.90;48.74
23223;BME280;11780;13.904;100.620;2023-02-26T15:03:22;101842.31;;;29.84;49.63
23223;BME280;11780;13.904;100.620;2023-02-26T15:08:42;101846.19;;;29.83;49.70
23223;BME280;11780;13.904;100.620;2023-02-26T15:11:39;101846.72;;;29.85;49.69
23223;BME280;11780;13.904;100.620;2023-02-26T15:17:25;101850.09;;;29.82;49.78
23223;BME280;11780;13.904;100.620;2023-02-26T15:25:48;101834.38;;;29.77;49.99
23223;BME280;11780;13.904;100.620;2023-02-26T15:28:24;101833.00;;;29.80;50.11
23223;BME280;11780;13.904;100.620;2023-02-26T15:30:57;101838.25;;;29.76;50.13
23223;BME280;11780;13.904;100.620;2023-02-26T15:33:29;101837.44;;;29.75;50.13
23223;BME280;11780;13.904;100.620;2023-02-26T15:36:00;101836.91;;;29.73;50.10
23223;BME280;11780;13.904;100.620;2023-02-26T15:38:58;101834.38;;;29.77;49.75
23223;BME280;11780;13.904;100.620;2023-02-26T15:41:30;101826.41;;;29.75;49.37
23223;BME280;11780;13.904;100.620;2023-02-26T15:44:06;101826.41;;;29.75;49.09
23223;BME280;11780;13.904;100.620;2023-02-26T15:46:43;101827.53;;;29.74;48.59